Polkville, North Carolina
Current Conditions -  °F | °C
As of 3:15 AM on Monday 22 Dec 2014 (Local Time) from KEHO Reporting Station
Haze Haze  
Wind Chill: 36°   Ceiling: 2100
Heat Index: 41°   Visibility: 4mi
Dew Point: 39°   Wind: 8mph
Humidity: 92%   Direction: 10°N
Pressure: 30.13"   Gusts: NA
Location:  35.42°N, 81.64°W
Report Text: KEHO 220815Z AUTO 01007KT 4SM BR BKN021 OVC028 05/04 A3013 RMK AO2 T00500038
Loading
Personal Weather Stations






























Interactive Weather Map New forecast layout! Learn more

10-Day Weather Forecast

Advertisements
Track Severe Weather on mobile